sensor_id;sensor_type;location;lat;lon;timestamp;pressure;altitude;pressure_sealevel;temperature;humidity
18533;BME280;9396;51.510;11.934;2023-07-09T00:00:38;100824.25;;;21.44;74.61
18533;BME280;9396;51.510;11.934;2023-07-09T00:03:05;100812.78;;;21.42;74.71
18533;BME280;9396;51.510;11.934;2023-07-09T00:05:32;100815.94;;;21.39;74.77
18533;BME280;9396;51.510;11.934;2023-07-09T00:08:00;100822.81;;;21.41;74.69
18533;BME280;9396;51.510;11.934;2023-07-09T00:10:27;100825.13;;;21.38;74.89
18533;BME280;9396;51.510;11.934;2023-07-09T00:12:53;100835.13;;;21.31;75.31
18533;BME280;9396;51.510;11.934;2023-07-09T00:15:20;100839.75;;;21.23;75.29
18533;BME280;9396;51.510;11.934;2023-07-09T00:17:47;100836.41;;;21.21;74.94
18533;BME280;9396;51.510;11.934;2023-07-09T00:20:16;100828.06;;;21.16;75.27
18533;BME280;9396;51.510;11.934;2023-07-09T00:22:43;100834.75;;;21.14;75.09
18533;BME280;9396;51.510;11.934;2023-07-09T00:25:19;100830.19;;;21.01;75.36
18533;BME280;9396;51.510;11.934;2023-07-09T00:27:46;100822.28;;;20.87;75.26
18533;BME280;9396;51.510;11.934;2023-07-09T00:30:16;100829.97;;;20.83;75.10
18533;BME280;9396;51.510;11.934;2023-07-09T00:32:44;100827.47;;;20.88;75.63
18533;BME280;9396;51.510;11.934;2023-07-09T00:35:11;100826.03;;;20.86;75.39
18533;BME280;9396;51.510;11.934;2023-07-09T00:37:41;100823.53;;;20.91;75.20
18533;BME280;9396;51.510;11.934;2023-07-09T00:40:13;100823.09;;;20.94;75.60
18533;BME280;9396;51.510;11.934;2023-07-09T00:42:45;100821.44;;;20.93;75.97
18533;BME280;9396;51.510;11.934;2023-07-09T00:45:19;100818.56;;;20.88;75.70
18533;BME280;9396;51.510;11.934;2023-07-09T00:47:49;100817.94;;;20.86;75.50
18533;BME280;9396;51.510;11.934;2023-07-09T00:50:24;100824.56;;;20.83;76.00
18533;BME280;9396;51.510;11.934;2023-07-09T00:52:56;100825.22;;;20.79;76.35
18533;BME280;9396;51.510;11.934;2023-07-09T00:55:31;100817.94;;;20.66;76.86
18533;BME280;9396;51.510;11.934;2023-07-09T00:58:06;100820.66;;;20.66;76.72
18533;BME280;9396;51.510;11.934;2023-07-09T01:00:37;100823.34;;;20.66;76.11
18533;BME280;9396;51.510;11.934;2023-07-09T01:03:14;100817.75;;;20.61;76.81
18533;BME280;9396;51.510;11.934;2023-07-09T01:05:42;100818.97;;;20.59;76.70
18533;BME280;9396;51.510;11.934;2023-07-09T01:08:09;100820.63;;;20.53;76.58
18533;BME280;9396;51.510;11.934;2023-07-09T01:10:37;100817.53;;;20.50;76.90
18533;BME280;9396;51.510;11.934;2023-07-09T01:13:06;100820.44;;;20.48;76.58
18533;BME280;9396;51.510;11.934;2023-07-09T01:15:34;100816.69;;;20.43;76.81
18533;BME280;9396;51.510;11.934;2023-07-09T01:18:03;100816.91;;;20.41;76.91
18533;BME280;9396;51.510;11.934;2023-07-09T01:20:30;100821.88;;;20.31;77.67
18533;BME280;9396;51.510;11.934;2023-07-09T01:22:58;100824.34;;;20.26;77.30
18533;BME280;9396;51.510;11.934;2023-07-09T01:25:26;100823.53;;;20.19;77.03
18533;BME280;9396;51.510;11.934;2023-07-09T01:27:55;100823.72;;;20.17;77.29
18533;BME280;9396;51.510;11.934;2023-07-09T01:30:24;100826.59;;;20.09;77.07
18533;BME280;9396;51.510;11.934;2023-07-09T01:32:51;100826.41;;;20.11;77.52
18533;BME280;9396;51.510;11.934;2023-07-09T01:35:22;100828.47;;;20.09;77.33
18533;BME280;9396;51.510;11.934;2023-07-09T01:37:49;100825.13;;;20.07;77.43
18533;BME280;9396;51.510;11.934;2023-07-09T01:40:20;100831.38;;;20.07;77.83
18533;BME280;9396;51.510;11.934;2023-07-09T01:42:48;100828.63;;;20.01;78.26
18533;BME280;9396;51.510;11.934;2023-07-09T01:45:14;100836.31;;;19.97;78.71
18533;BME280;9396;51.510;11.934;2023-07-09T01:47:42;100827.56;;;19.89;78.21
18533;BME280;9396;51.510;11.934;2023-07-09T01:50:10;100835.66;;;19.82;78.16
18533;BME280;9396;51.510;11.934;2023-07-09T01:52:38;100837.13;;;19.85;78.87
18533;BME280;9396;51.510;11.934;2023-07-09T01:55:07;100837.75;;;19.87;78.87
18533;BME280;9396;51.510;11.934;2023-07-09T01:57:37;100839.81;;;19.85;78.77
18533;BME280;9396;51.510;11.934;2023-07-09T02:00:08;100831.28;;;19.81;78.47
18533;BME280;9396;51.510;11.934;2023-07-09T02:02:36;100833.81;;;19.83;78.76
18533;BME280;9396;51.510;11.934;2023-07-09T02:05:04;100828.41;;;19.83;78.92
18533;BME280;9396;51.510;11.934;2023-07-09T02:07:31;100821.31;;;19.82;79.16
18533;BME280;9396;51.510;11.934;2023-07-09T02:09:58;100797.19;;;19.67;79.03
18533;BME280;9396;51.510;11.934;2023-07-09T02:12:25;100823.81;;;19.83;78.59
18533;BME280;9396;51.510;11.934;2023-07-09T02:14:53;100821.75;;;19.79;79.16
18533;BME280;9396;51.510;11.934;2023-07-09T02:17:19;100818.81;;;19.74;78.96
18533;BME280;9396;51.510;11.934;2023-07-09T02:19:46;100815.88;;;19.69;79.00
18533;BME280;9396;51.510;11.934;2023-07-09T02:22:12;100815.88;;;19.69;78.86
18533;BME280;9396;51.510;11.934;2023-07-09T02:24:39;100812.56;;;19.67;78.86
18533;BME280;9396;51.510;11.934;2023-07-09T02:27:08;100814.63;;;19.65;79.26
18533;BME280;9396;51.510;11.934;2023-07-09T02:29:35;100805.06;;;19.62;79.54
18533;BME280;9396;51.510;11.934;2023-07-09T02:32:04;100810.84;;;19.53;79.54
18533;BME280;9396;51.510;11.934;2023-07-09T02:34:31;100810.81;;;19.46;80.05
18533;BME280;9396;51.510;11.934;2023-07-09T02:36:58;100825.06;;;19.34;80.03
18533;BME280;9396;51.510;11.934;2023-07-09T02:39:25;100828.56;;;19.28;80.05
18533;BME280;9396;51.510;11.934;2023-07-09T02:41:52;100828.72;;;19.26;80.32
18533;BME280;9396;51.510;11.934;2023-07-09T02:44:19;100827.69;;;19.20;80.17
18533;BME280;9396;51.510;11.934;2023-07-09T02:46:46;100836.16;;;19.17;80.02
18533;BME280;9396;51.510;11.934;2023-07-09T02:49:14;100818.09;;;19.11;80.10
18533;BME280;9396;51.510;11.934;2023-07-09T02:51:42;100820.16;;;19.09;79.84
18533;BME280;9396;51.510;11.934;2023-07-09T02:54:08;100829.31;;;19.15;80.12
18533;BME280;9396;51.510;11.934;2023-07-09T02:56:35;100826.72;;;19.00;80.83
18533;BME280;9396;51.510;11.934;2023-07-09T02:59:02;100833.72;;;18.88;80.86
18533;BME280;9396;51.510;11.934;2023-07-09T03:01:30;100832.03;;;18.87;81.24
18533;BME280;9396;51.510;11.934;2023-07-09T03:03:59;100827.06;;;18.91;81.51
18533;BME280;9396;51.510;11.934;2023-07-09T03:06:29;100828.56;;;18.93;81.59
18533;BME280;9396;51.510;11.934;2023-07-09T03:08:58;100823.81;;;18.95;81.54
18533;BME280;9396;51.510;11.934;2023-07-09T03:11:24;100833.13;;;18.99;81.63
18533;BME280;9396;51.510;11.934;2023-07-09T03:13:51;100827.56;;;19.01;81.61
18533;BME280;9396;51.510;11.934;2023-07-09T03:16:17;100827.75;;;18.99;81.79
18533;BME280;9396;51.510;11.934;2023-07-09T03:18:45;100838.16;;;18.75;82.35
18533;BME280;9396;51.510;11.934;2023-07-09T03:21:12;100832.25;;;18.58;82.76
18533;BME280;9396;51.510;11.934;2023-07-09T03:23:40;100830.66;;;18.70;82.51
18533;BME280;9396;51.510;11.934;2023-07-09T03:26:07;100835.91;;;18.78;82.53
18533;BME280;9396;51.510;11.934;2023-07-09T03:28:33;100830.75;;;18.83;82.65
18533;BME280;9396;51.510;11.934;2023-07-09T03:31:00;100824.19;;;18.92;82.63
18533;BME280;9396;51.510;11.934;2023-07-09T03:33:27;100840.78;;;18.96;82.35
18533;BME280;9396;51.510;11.934;2023-07-09T03:35:54;100839.56;;;18.98;82.57
18533;BME280;9396;51.510;11.934;2023-07-09T03:38:21;100839.56;;;18.98;82.42
18533;BME280;9396;51.510;11.934;2023-07-09T03:40:51;100836.88;;;18.98;82.39
18533;BME280;9396;51.510;11.934;2023-07-09T03:43:18;100827.13;;;18.97;82.17
18533;BME280;9396;51.510;11.934;2023-07-09T03:45:45;100835.84;;;18.99;82.04
18533;BME280;9396;51.510;11.934;2023-07-09T03:48:13;100828.78;;;18.98;82.72
18533;BME280;9396;51.510;11.934;2023-07-09T03:50:41;100837.94;;;18.97;82.71
18533;BME280;9396;51.510;11.934;2023-07-09T03:53:07;100841.84;;;18.95;82.90
18533;BME280;9396;51.510;11.934;2023-07-09T03:55:34;100841.84;;;18.95;82.74
18533;BME280;9396;51.510;11.934;2023-07-09T03:58:02;100841.00;;;18.94;82.82
18533;BME280;9396;51.510;11.934;2023-07-09T04:00:29;100849.72;;;18.96;82.94
18533;BME280;9396;51.510;11.934;2023-07-09T04:02:56;100841.63;;;18.96;83.15
18533;BME280;9396;51.510;11.934;2023-07-09T04:05:23;100846.00;;;18.97;83.24
18533;BME280;9396;51.510;11.934;2023-07-09T04:07:50;100839.78;;;18.97;83.21
18533;BME280;9396;51.510;11.934;2023-07-09T04:10:17;100844.78;;;19.00;83.59
18533;BME280;9396;51.510;11.934;2023-07-09T04:12:44;100845.84;;;19.05;82.89
18533;BME280;9396;51.510;11.934;2023-07-09T04:15:12;100845.06;;;19.11;83.19
18533;BME280;9396;51.510;11.934;2023-07-09T04:17:39;100850.19;;;19.06;83.85
18533;BME280;9396;51.510;11.934;2023-07-09T04:20:07;100851.25;;;19.05;84.00
18533;BME280;9396;51.510;11.934;2023-07-09T04:22:35;100852.09;;;19.06;83.91
18533;BME280;9396;51.510;11.934;2023-07-09T04:25:03;100839.03;;;19.09;83.53
18533;BME280;9396;51.510;11.934;2023-07-09T04:27:31;100838.81;;;19.11;83.27
18533;BME280;9396;51.510;11.934;2023-07-09T04:29:57;100846.75;;;19.19;83.27
18533;BME280;9396;51.510;11.934;2023-07-09T04:32:25;100842.22;;;19.26;83.67
18533;BME280;9396;51.510;11.934;2023-07-09T04:34:52;100843.31;;;19.32;83.74
18533;BME280;9396;51.510;11.934;2023-07-09T04:37:19;100845.25;;;19.38;83.90
18533;BME280;9396;51.510;11.934;2023-07-09T04:39:45;100847.53;;;19.41;84.40
18533;BME280;9396;51.510;11.934;2023-07-09T04:42:14;100839.66;;;19.46;84.20
18533;BME280;9396;51.510;11.934;2023-07-09T04:44:41;100854.00;;;19.53;83.90
18533;BME280;9396;51.510;11.934;2023-07-09T04:47:08;100854.28;;;19.58;82.73
18533;BME280;9396;51.510;11.934;2023-07-09T04:49:36;100852.44;;;19.65;82.82
18533;BME280;9396;51.510;11.934;2023-07-09T04:52:03;100860.31;;;19.66;83.37
18533;BME280;9396;51.510;11.934;2023-07-09T04:54:30;100864.28;;;19.70;83.30
18533;BME280;9396;51.510;11.934;2023-07-09T04:56:57;100862.66;;;19.76;82.47
18533;BME280;9396;51.510;11.934;2023-07-09T04:59:24;100863.91;;;19.80;82.66
18533;BME280;9396;51.510;11.934;2023-07-09T05:01:50;100864.13;;;19.85;83.12
18533;BME280;9396;51.510;11.934;2023-07-09T05:04:17;100867.44;;;19.87;82.98
18533;BME280;9396;51.510;11.934;2023-07-09T05:06:45;100871.00;;;19.94;83.19
18533;BME280;9396;51.510;11.934;2023-07-09T05:09:11;100872.50;;;20.03;82.84
18533;BME280;9396;51.510;11.934;2023-07-09T05:11:38;100878.13;;;20.08;82.76
18533;BME280;9396;51.510;11.934;2023-07-09T05:14:05;100871.34;;;20.18;82.22
18533;BME280;9396;51.510;11.934;2023-07-09T05:16:31;100870.50;;;20.31;81.92
18533;BME280;9396;51.510;11.934;2023-07-09T05:18:58;100870.13;;;20.47;81.85
18533;BME280;9396;51.510;11.934;2023-07-09T05:21:24;100870.34;;;20.59;81.54
18533;BME280;9396;51.510;11.934;2023-07-09T05:23:52;100867.03;;;20.70;81.20
18533;BME280;9396;51.510;11.934;2023-07-09T05:26:19;100865.13;;;20.70;81.22
18533;BME280;9396;51.510;11.934;2023-07-09T05:28:45;100863.91;;;20.86;81.79
18533;BME280;9396;51.510;11.934;2023-07-09T05:31:12;100867.22;;;20.94;80.61
18533;BME280;9396;51.510;11.934;2023-07-09T05:33:39;100866.44;;;21.00;78.91
18533;BME280;9396;51.510;11.934;2023-07-09T05:36:05;100850.19;;;21.00;78.61
18533;BME280;9396;51.510;11.934;2023-07-09T05:38:32;100864.13;;;21.10;77.80
18533;BME280;9396;51.510;11.934;2023-07-09T05:41:02;100862.59;;;21.27;76.75
18533;BME280;9396;51.510;11.934;2023-07-09T05:43:29;100858.03;;;21.28;76.54
18533;BME280;9396;51.510;11.934;2023-07-09T05:45:56;100863.03;;;21.38;76.82
18533;BME280;9396;51.510;11.934;2023-07-09T05:48:23;100872.97;;;21.50;76.79
18533;BME280;9396;51.510;11.934;2023-07-09T05:50:52;100868.97;;;21.59;74.53
18533;BME280;9396;51.510;11.934;2023-07-09T05:53:19;100874.78;;;21.69;74.61
18533;BME280;9396;51.510;11.934;2023-07-09T05:55:46;100876.59;;;21.75;73.95
18533;BME280;9396;51.510;11.934;2023-07-09T05:58:14;100877.44;;;21.89;74.13
18533;BME280;9396;51.510;11.934;2023-07-09T06:00:40;100877.47;;;22.20;73.61
18533;BME280;9396;51.510;11.934;2023-07-09T06:03:07;100873.25;;;22.62;72.71
18533;BME280;9396;51.510;11.934;2023-07-09T06:05:34;100877.38;;;23.13;73.70
18533;BME280;9396;51.510;11.934;2023-07-09T06:08:01;100879.25;;;23.38;69.85
18533;BME280;9396;51.510;11.934;2023-07-09T06:10:28;100871.72;;;23.76;70.95
18533;BME280;9396;51.510;11.934;2023-07-09T06:12:55;100867.72;;;24.26;68.13
18533;BME280;9396;51.510;11.934;2023-07-09T06:15:25;100877.63;;;24.62;67.17
18533;BME280;9396;51.510;11.934;2023-07-09T06:17:51;100882.41;;;24.89;66.35
18533;BME280;9396;51.510;11.934;2023-07-09T06:20:18;100878.28;;;25.21;65.71
18533;BME280;9396;51.510;11.934;2023-07-09T06:22:45;100881.63;;;25.47;65.89
18533;BME280;9396;51.510;11.934;2023-07-09T06:25:12;100873.94;;;25.83;64.18
18533;BME280;9396;51.510;11.934;2023-07-09T06:27:38;100878.97;;;26.14;64.09
18533;BME280;9396;51.510;11.934;2023-07-09T06:30:06;100878.56;;;26.22;62.65
18533;BME280;9396;51.510;11.934;2023-07-09T06:32:34;100870.97;;;26.69;63.65
18533;BME280;9396;51.510;11.934;2023-07-09T06:35:01;100880.97;;;27.13;62.00
18533;BME280;9396;51.510;11.934;2023-07-09T06:37:27;100873.84;;;27.12;61.81
18533;BME280;9396;51.510;11.934;2023-07-09T06:39:54;100879.63;;;27.32;61.93
18533;BME280;9396;51.510;11.934;2023-07-09T06:42:21;100872.66;;;27.41;61.12
18533;BME280;9396;51.510;11.934;2023-07-09T06:44:47;100876.44;;;28.00;60.45
18533;BME280;9396;51.510;11.934;2023-07-09T06:47:14;100873.56;;;27.69;59.79
18533;BME280;9396;51.510;11.934;2023-07-09T06:49:42;100872.66;;;27.85;60.07
18533;BME280;9396;51.510;11.934;2023-07-09T06:52:08;100869.94;;;28.91;59.49
18533;BME280;9396;51.510;11.934;2023-07-09T06:54:35;100873.44;;;29.65;58.47
18533;BME280;9396;51.510;11.934;2023-07-09T06:57:02;100859.47;;;30.79;55.10
18533;BME280;9396;51.510;11.934;2023-07-09T06:59:28;100862.41;;;31.52;54.09
18533;BME280;9396;51.510;11.934;2023-07-09T07:01:55;100864.50;;;32.29;52.83
18533;BME280;9396;51.510;11.934;2023-07-09T07:04:22;100861.84;;;32.58;52.19
18533;BME280;9396;51.510;11.934;2023-07-09T07:06:50;100857.47;;;32.57;52.83
18533;BME280;9396;51.510;11.934;2023-07-09T07:09:16;100866.38;;;32.44;51.65
18533;BME280;9396;51.510;11.934;2023-07-09T07:11:43;100864.59;;;32.97;50.83
18533;BME280;9396;51.510;11.934;2023-07-09T07:14:09;100859.38;;;32.90;50.87
18533;BME280;9396;51.510;11.934;2023-07-09T07:16:36;100860.31;;;32.42;51.10
18533;BME280;9396;51.510;11.934;2023-07-09T07:19:02;100865.31;;;32.74;52.97
18533;BME280;9396;51.510;11.934;2023-07-09T07:21:29;100862.63;;;33.26;50.33
18533;BME280;9396;51.510;11.934;2023-07-09T07:23:57;100865.72;;;33.19;50.30
18533;BME280;9396;51.510;11.934;2023-07-09T07:26:23;100865.56;;;33.82;50.51
18533;BME280;9396;51.510;11.934;2023-07-09T07:28:50;100862.69;;;33.21;50.08
18533;BME280;9396;51.510;11.934;2023-07-09T07:31:18;100868.44;;;33.24;50.89
18533;BME280;9396;51.510;11.934;2023-07-09T07:33:44;100866.22;;;33.26;49.95
18533;BME280;9396;51.510;11.934;2023-07-09T07:36:11;100863.28;;;33.41;51.75
18533;BME280;9396;51.510;11.934;2023-07-09T07:38:38;100862.69;;;33.21;51.13
18533;BME280;9396;51.510;11.934;2023-07-09T07:41:07;100863.81;;;32.86;50.62
18533;BME280;9396;51.510;11.934;2023-07-09T07:43:33;100873.03;;;31.74;52.12
18533;BME280;9396;51.510;11.934;2023-07-09T07:46:00;100865.53;;;31.06;53.19
18533;BME280;9396;51.510;11.934;2023-07-09T07:48:27;100863.03;;;31.09;53.61
18533;BME280;9396;51.510;11.934;2023-07-09T07:50:58;100854.50;;;32.00;53.60
18533;BME280;9396;51.510;11.934;2023-07-09T07:53:25;100857.06;;;32.30;51.74
18533;BME280;9396;51.510;11.934;2023-07-09T07:55:54;100859.69;;;32.11;52.02
18533;BME280;9396;51.510;11.934;2023-07-09T07:58:23;100852.28;;;31.38;51.45
18533;BME280;9396;51.510;11.934;2023-07-09T08:00:49;100863.00;;;31.29;52.55
18533;BME280;9396;51.510;11.934;2023-07-09T08:03:20;100862.16;;;31.34;52.05
18533;BME280;9396;51.510;11.934;2023-07-09T08:05:48;100850.63;;;32.06;52.39
18533;BME280;9396;51.510;11.934;2023-07-09T08:08:15;100853.78;;;32.67;52.11
18533;BME280;9396;51.510;11.934;2023-07-09T08:10:42;100855.78;;;33.23;49.71
18533;BME280;9396;51.510;11.934;2023-07-09T08:13:09;100850.81;;;33.20;51.06
18533;BME280;9396;51.510;11.934;2023-07-09T08:15:37;100862.53;;;32.35;50.50
18533;BME280;9396;51.510;11.934;2023-07-09T08:18:03;100849.88;;;31.90;51.18
18533;BME280;9396;51.510;11.934;2023-07-09T08:20:30;100851.28;;;31.83;51.89
18533;BME280;9396;51.510;11.934;2023-07-09T08:22:58;100847.03;;;32.05;51.15
18533;BME280;9396;51.510;11.934;2023-07-09T08:25:25;100852.34;;;31.97;50.64
18533;BME280;9396;51.510;11.934;2023-07-09T08:27:51;100856.09;;;32.11;50.06
18533;BME280;9396;51.510;11.934;2023-07-09T08:30:18;100849.13;;;32.23;50.45
18533;BME280;9396;51.510;11.934;2023-07-09T08:32:46;100847.91;;;32.44;49.88
18533;BME280;9396;51.510;11.934;2023-07-09T08:35:13;100848.50;;;32.70;50.33
18533;BME280;9396;51.510;11.934;2023-07-09T08:37:40;100857.06;;;32.69;49.78
18533;BME280;9396;51.510;11.934;2023-07-09T08:40:12;100849.16;;;32.62;51.27
18533;BME280;9396;51.510;11.934;2023-07-09T08:42:43;100845.75;;;32.31;50.31
18533;BME280;9396;51.510;11.934;2023-07-09T08:45:28;100844.72;;;32.22;50.45
18533;BME280;9396;51.510;11.934;2023-07-09T08:48:03;100839.50;;;32.65;51.26
18533;BME280;9396;51.510;11.934;2023-07-09T08:50:36;100837.13;;;32.04;48.89
18533;BME280;9396;51.510;11.934;2023-07-09T08:53:09;100839.13;;;32.37;50.64
18533;BME280;9396;51.510;11.934;2023-07-09T08:55:42;100839.50;;;32.65;49.17
18533;BME280;9396;51.510;11.934;2023-07-09T08:58:12;100842.88;;;32.85;49.13
18533;BME280;9396;51.510;11.934;2023-07-09T09:00:44;100841.16;;;32.61;49.87
18533;BME280;9396;51.510;11.934;2023-07-09T09:03:16;100843.22;;;32.79;49.01
18533;BME280;9396;51.510;11.934;2023-07-09T09:05:48;100847.59;;;33.13;49.81
18533;BME280;9396;51.510;11.934;2023-07-09T09:08:24;100838.34;;;32.99;49.42
18533;BME280;9396;51.510;11.934;2023-07-09T09:10:57;100840.31;;;33.22;48.78
18533;BME280;9396;51.510;11.934;2023-07-09T09:13:28;100840.16;;;33.37;47.95
18533;BME280;9396;51.510;11.934;2023-07-09T09:16:06;100831.06;;;33.61;47.97
18533;BME280;9396;51.510;11.934;2023-07-09T09:18:41;100839.53;;;33.88;48.29
18533;BME280;9396;51.510;11.934;2023-07-09T09:21:16;100834.47;;;33.95;47.32
18533;BME280;9396;51.510;11.934;2023-07-09T09:23:49;100824.19;;;34.00;46.95
18533;BME280;9396;51.510;11.934;2023-07-09T09:26:21;100829.41;;;33.36;46.99
18533;BME280;9396;51.510;11.934;2023-07-09T09:28:50;100822.41;;;33.67;46.49
18533;BME280;9396;51.510;11.934;2023-07-09T09:31:17;100829.56;;;33.49;46.41
18533;BME280;9396;51.510;11.934;2023-07-09T09:33:47;100820.25;;;33.83;47.48
18533;BME280;9396;51.510;11.934;2023-07-09T09:36:16;100824.63;;;33.46;46.85
18533;BME280;9396;51.510;11.934;2023-07-09T09:38:43;100823.63;;;33.80;47.09
18533;BME280;9396;51.510;11.934;2023-07-09T09:41:15;100828.25;;;33.66;47.03
18533;BME280;9396;51.510;11.934;2023-07-09T09:43:43;100826.66;;;33.60;46.75
18533;BME280;9396;51.510;11.934;2023-07-09T09:46:17;100821.88;;;33.65;46.41
18533;BME280;9396;51.510;11.934;2023-07-09T09:48:47;100818.72;;;33.77;47.13
18533;BME280;9396;51.510;11.934;2023-07-09T09:51:15;100816.69;;;33.82;46.46
18533;BME280;9396;51.510;11.934;2023-07-09T09:53:46;100817.72;;;33.86;46.17
18533;BME280;9396;51.510;11.934;2023-07-09T09:56:18;100821.41;;;33.82;45.74
18533;BME280;9396;51.510;11.934;2023-07-09T09:58:45;100825.00;;;33.82;45.36
18533;BME280;9396;51.510;11.934;2023-07-09T10:01:15;100819.16;;;33.84;45.67
18533;BME280;9396;51.510;11.934;2023-07-09T10:03:42;100819.34;;;33.69;45.69
18533;BME280;9396;51.510;11.934;2023-07-09T10:06:15;100825.56;;;33.79;45.64
18533;BME280;9396;51.510;11.934;2023-07-09T10:08:50;100834.22;;;33.73;44.98
18533;BME280;9396;51.510;11.934;2023-07-09T10:11:24;100820.03;;;33.79;45.66
18533;BME280;9396;51.510;11.934;2023-07-09T10:13:55;100830.88;;;33.52;43.54
18533;BME280;9396;51.510;11.934;2023-07-09T10:16:33;100825.03;;;33.59;43.69
18533;BME280;9396;51.510;11.934;2023-07-09T10:19:22;100818.63;;;33.39;43.15
18533;BME280;9396;51.510;11.934;2023-07-09T10:21:57;100821.03;;;32.94;42.79
18533;BME280;9396;51.510;11.934;2023-07-09T10:24:37;100823.16;;;33.02;44.31
18533;BME280;9396;51.510;11.934;2023-07-09T10:27:11;100817.25;;;33.13;45.05
18533;BME280;9396;51.510;11.934;2023-07-09T10:29:51;100817.72;;;32.97;43.47
18533;BME280;9396;51.510;11.934;2023-07-09T10:32:31;100819.94;;;32.95;42.99
18533;BME280;9396;51.510;11.934;2023-07-09T10:35:05;100813.78;;;33.03;44.23
18533;BME280;9396;51.510;11.934;2023-07-09T10:37:47;100817.34;;;33.03;43.81
18533;BME280;9396;51.510;11.934;2023-07-09T10:40:25;100820.75;;;32.95;43.03
18533;BME280;9396;51.510;11.934;2023-07-09T10:42:59;100812.19;;;32.97;44.10
18533;BME280;9396;51.510;11.934;2023-07-09T10:45:29;100803.56;;;33.03;43.44
18533;BME280;9396;51.510;11.934;2023-07-09T10:47:59;100799.97;;;33.03;43.71
18533;BME280;9396;51.510;11.934;2023-07-09T10:50:32;100793.59;;;33.07;43.21
18533;BME280;9396;51.510;11.934;2023-07-09T10:53:05;100797.56;;;32.96;43.58
18533;BME280;9396;51.510;11.934;2023-07-09T10:55:39;100798.13;;;32.98;43.49
18533;BME280;9396;51.510;11.934;2023-07-09T10:58:19;100787.38;;;32.92;43.94
18533;BME280;9396;51.510;11.934;2023-07-09T11:00:48;100802.88;;;32.88;43.11
18533;BME280;9396;51.510;11.934;2023-07-09T11:03:17;100790.50;;;32.85;43.49
18533;BME280;9396;51.510;11.934;2023-07-09T11:05:46;100782.63;;;32.74;43.60
18533;BME280;9396;51.510;11.934;2023-07-09T11:08:17;100788.94;;;32.74;44.42
18533;BME280;9396;51.510;11.934;2023-07-09T11:10:49;100793.59;;;32.79;43.89
18533;BME280;9396;51.510;11.934;2023-07-09T11:13:23;100787.78;;;32.80;44.46
18533;BME280;9396;51.510;11.934;2023-07-09T11:15:54;100791.09;;;32.82;43.87
18533;BME280;9396;51.510;11.934;2023-07-09T11:18:24;100779.53;;;32.80;44.46
18533;BME280;9396;51.510;11.934;2023-07-09T11:20:58;100781.63;;;32.88;44.75
18533;BME280;9396;51.510;11.934;2023-07-09T11:23:43;100780.50;;;32.94;43.72
18533;BME280;9396;51.510;11.934;2023-07-09T11:26:12;100774.91;;;32.99;43.94
18533;BME280;9396;51.510;11.934;2023-07-09T11:28:41;100772.69;;;33.01;44.18
18533;BME280;9396;51.510;11.934;2023-07-09T11:31:16;100771.63;;;32.97;44.16
18533;BME280;9396;51.510;11.934;2023-07-09T11:33:48;100773.34;;;32.93;44.32
18533;BME280;9396;51.510;11.934;2023-07-09T11:36:24;100770.06;;;32.86;43.67
18533;BME280;9396;51.510;11.934;2023-07-09T11:38:54;100770.84;;;32.92;44.01
18533;BME280;9396;51.510;11.934;2023-07-09T11:41:38;100767.53;;;32.95;44.24
18533;BME280;9396;51.510;11.934;2023-07-09T11:44:15;100770.59;;;32.93;43.65
18533;BME280;9396;51.510;11.934;2023-07-09T11:46:51;100772.56;;;32.88;44.98
18533;BME280;9396;51.510;11.934;2023-07-09T11:49:19;100764.03;;;32.84;44.28
18533;BME280;9396;51.510;11.934;2023-07-09T11:51:50;100759.88;;;32.87;44.34
18533;BME280;9396;51.510;11.934;2023-07-09T11:54:20;100754.34;;;32.87;44.54
18533;BME280;9396;51.510;11.934;2023-07-09T11:56:54;100749.06;;;32.90;45.71
18533;BME280;9396;51.510;11.934;2023-07-09T11:59:21;100756.81;;;32.93;44.78
18533;BME280;9396;51.510;11.934;2023-07-09T12:01:48;100747.44;;;32.89;45.12
18533;BME280;9396;51.510;11.934;2023-07-09T12:04:18;100751.00;;;32.90;45.47
18533;BME280;9396;51.510;11.934;2023-07-09T12:06:46;100742.50;;;32.86;44.78
18533;BME280;9396;51.510;11.934;2023-07-09T12:09:16;100743.84;;;32.89;44.33
18533;BME280;9396;51.510;11.934;2023-07-09T12:11:46;100737.81;;;32.87;44.65
18533;BME280;9396;51.510;11.934;2023-07-09T12:14:14;100738.88;;;32.91;45.50
18533;BME280;9396;51.510;11.934;2023-07-09T12:16:43;100731.94;;;32.98;44.50
18533;BME280;9396;51.510;11.934;2023-07-09T12:19:13;100729.81;;;32.85;44.22
18533;BME280;9396;51.510;11.934;2023-07-09T12:21:42;100730.97;;;32.84;45.88
18533;BME280;9396;51.510;11.934;2023-07-09T12:24:21;100725.94;;;32.86;45.25
18533;BME280;9396;51.510;11.934;2023-07-09T12:26:52;100723.16;;;32.91;45.01
18533;BME280;9396;51.510;11.934;2023-07-09T12:29:19;100722.00;;;32.97;45.66
18533;BME280;9396;51.510;11.934;2023-07-09T12:31:45;100728.03;;;32.99;45.16
18533;BME280;9396;51.510;11.934;2023-07-09T12:34:13;100722.75;;;33.03;44.93
18533;BME280;9396;51.510;11.934;2023-07-09T12:36:44;100730.91;;;33.13;45.20
18533;BME280;9396;51.510;11.934;2023-07-09T12:39:12;100725.13;;;33.14;44.74
18533;BME280;9396;51.510;11.934;2023-07-09T12:41:42;100714.91;;;32.86;43.91
18533;BME280;9396;51.510;11.934;2023-07-09T12:44:19;100717.97;;;32.85;44.68
18533;BME280;9396;51.510;11.934;2023-07-09T12:46:48;100709.63;;;32.90;45.10
18533;BME280;9396;51.510;11.934;2023-07-09T12:49:21;100703.53;;;32.98;45.02
18533;BME280;9396;51.510;11.934;2023-07-09T12:51:48;100713.66;;;33.02;45.46
18533;BME280;9396;51.510;11.934;2023-07-09T12:54:17;100718.00;;;33.08;46.22
18533;BME280;9396;51.510;11.934;2023-07-09T12:56:45;100703.31;;;33.13;44.49
18533;BME280;9396;51.510;11.934;2023-07-09T12:59:18;100698.06;;;33.16;43.89